Author Topic: Ameriflight 116 - Double Go-Around @ KBUR during early morning storm  (Read 476 times)

Offline Foxtrot789

  • Newbie
  • *
  • Posts: 1
Ameriflight 116 - Double Go-Around @ KBUR during early morning storm

Heard a plane just before 2a on the burbank departure (couldnt see anything as it was raining and low overcast) and thought it was a weird time for a departure.  Checked flight radar and saw this plane going around.  Started tracking it only to notice he went missed a second time.

Thought i'd share. 

First share btw.
Thanks,
Trevor
« Last Edit: February 20, 2024, 06:09:56 PM by Foxtrot789 »



Offline mike_ny

  • Newbie
  • *
  • Posts: 21
Re: Ameriflight 116 - Double Go-Around @ KBUR during early morning storm
« Reply #1 on: February 27, 2024, 10:10:04 AM »
Thanks Trevor,
Nice work putting together edited audio clip!

AMF116/N7862R
Beechcraft BE99
20-Feb-2024
DEP: KHWD 0823utc (0023 local)
ARR: KBUR 1018utc (0218 local)
Flight track: https://www.flightaware.com/live/flight/AMF116/history/20240220/0830Z/KHWD/KBUR
Weather: 20/02/2024
10:29-> SPECI KBUR 201029Z 13011KT 2SM -RA BR BKN002 OVC026 12/12 A3007 RMK AO2 P0000 T01170117 $=
10:20-> SPECI KBUR 201020Z 14008KT 2SM -RA BR SCT002 OVC026 12/12 A3008 RMK AO2 P0000 T01170117 $=
10:00-> SPECI KBUR 201000Z 14008KT 2SM -RA BR BKN002 OVC021 12/12 A3010 RMK AO2 P0000 T01170117 $=
09:53-> METAR KBUR 200953Z 15007KT 2SM -RA BR BKN013 OVC016 12/12 A3011 RMK AO2 SLP188 P0000 T01170117 $=
« Last Edit: February 27, 2024, 10:11:35 AM by mike_ny »